sensor_id;sensor_type;location;lat;lon;timestamp;P1;durP1;ratioP1;P2;durP2;ratioP2
19127;SDS011;9696;53.686;10.094;2023-01-06T00:01:27;4.40;;;1.80;;
19127;SDS011;9696;53.686;10.094;2023-01-06T00:03:56;5.00;;;1.80;;
19127;SDS011;9696;53.686;10.094;2023-01-06T00:06:27;6.80;;;2.03;;
19127;SDS011;9696;53.686;10.094;2023-01-06T00:08:58;9.33;;;2.50;;
19127;SDS011;9696;53.686;10.094;2023-01-06T00:11:28;9.13;;;1.90;;
19127;SDS011;9696;53.686;10.094;2023-01-06T00:13:58;7.57;;;2.60;;
19127;SDS011;9696;53.686;10.094;2023-01-06T00:16:29;6.83;;;2.40;;
19127;SDS011;9696;53.686;10.094;2023-01-06T00:18:58;11.97;;;2.13;;
19127;SDS011;9696;53.686;10.094;2023-01-06T00:21:28;6.53;;;2.00;;
19127;SDS011;9696;53.686;10.094;2023-01-06T00:23:57;7.63;;;2.10;;
19127;SDS011;9696;53.686;10.094;2023-01-06T00:26:26;5.07;;;2.00;;
19127;SDS011;9696;53.686;10.094;2023-01-06T00:28:56;13.97;;;2.53;;
19127;SDS011;9696;53.686;10.094;2023-01-06T00:31:25;12.50;;;2.47;;
19127;SDS011;9696;53.686;10.094;2023-01-06T00:33:56;7.63;;;2.30;;
19127;SDS011;9696;53.686;10.094;2023-01-06T00:36:25;9.10;;;2.93;;
19127;SDS011;9696;53.686;10.094;2023-01-06T00:38:54;10.60;;;2.50;;
19127;SDS011;9696;53.686;10.094;2023-01-06T00:41:23;7.70;;;2.20;;
19127;SDS011;9696;53.686;10.094;2023-01-06T00:44:10;7.90;;;2.57;;
19127;SDS011;9696;53.686;10.094;2023-01-06T00:46:40;8.10;;;2.60;;
19127;SDS011;9696;53.686;10.094;2023-01-06T00:49:10;8.80;;;2.57;;
19127;SDS011;9696;53.686;10.094;2023-01-06T00:51:39;10.63;;;2.80;;
19127;SDS011;9696;53.686;10.094;2023-01-06T00:54:09;11.20;;;3.27;;
19127;SDS011;9696;53.686;10.094;2023-01-06T00:56:39;9.23;;;2.80;;
19127;SDS011;9696;53.686;10.094;2023-01-06T00:59:11;7.80;;;2.70;;
19127;SDS011;9696;53.686;10.094;2023-01-06T01:01:41;6.30;;;2.90;;
19127;SDS011;9696;53.686;10.094;2023-01-06T01:04:13;13.00;;;3.27;;
19127;SDS011;9696;53.686;10.094;2023-01-06T01:06:44;6.07;;;2.80;;
19127;SDS011;9696;53.686;10.094;2023-01-06T01:09:14;10.60;;;3.70;;
19127;SDS011;9696;53.686;10.094;2023-01-06T01:11:47;11.23;;;3.50;;
19127;SDS011;9696;53.686;10.094;2023-01-06T01:14:34;8.13;;;3.80;;
19127;SDS011;9696;53.686;10.094;2023-01-06T01:17:05;11.00;;;3.67;;
19127;SDS011;9696;53.686;10.094;2023-01-06T01:19:37;9.53;;;3.97;;
19127;SDS011;9696;53.686;10.094;2023-01-06T01:22:06;18.00;;;4.63;;
19127;SDS011;9696;53.686;10.094;2023-01-06T01:24:36;16.40;;;5.07;;
19127;SDS011;9696;53.686;10.094;2023-01-06T01:27:06;11.60;;;4.40;;
19127;SDS011;9696;53.686;10.094;2023-01-06T01:29:35;15.63;;;5.07;;
19127;SDS011;9696;53.686;10.094;2023-01-06T01:32:05;13.40;;;4.57;;
19127;SDS011;9696;53.686;10.094;2023-01-06T01:34:34;15.83;;;5.20;;
19127;SDS011;9696;53.686;10.094;2023-01-06T01:37:05;12.63;;;4.30;;
19127;SDS011;9696;53.686;10.094;2023-01-06T01:39:34;10.40;;;4.90;;
19127;SDS011;9696;53.686;10.094;2023-01-06T01:42:03;11.73;;;5.53;;
19127;SDS011;9696;53.686;10.094;2023-01-06T01:47:47;10.00;;;5.03;;
19127;SDS011;9696;53.686;10.094;2023-01-06T01:50:26;8.47;;;4.90;;
19127;SDS011;9696;53.686;10.094;2023-01-06T01:53:00;17.33;;;5.63;;
19127;SDS011;9696;53.686;10.094;2023-01-06T01:55:33;9.70;;;5.07;;
19127;SDS011;9696;53.686;10.094;2023-01-06T01:58:05;11.03;;;4.60;;
19127;SDS011;9696;53.686;10.094;2023-01-06T02:00:43;16.27;;;6.00;;
19127;SDS011;9696;53.686;10.094;2023-01-06T02:03:12;11.50;;;5.57;;
19127;SDS011;9696;53.686;10.094;2023-01-06T02:05:45;11.60;;;5.40;;
19127;SDS011;9696;53.686;10.094;2023-01-06T02:08:21;6.90;;;4.13;;
19127;SDS011;9696;53.686;10.094;2023-01-06T02:10:55;10.47;;;5.13;;
19127;SDS011;9696;53.686;10.094;2023-01-06T02:13:24;14.67;;;5.47;;
19127;SDS011;9696;53.686;10.094;2023-01-06T02:15:55;9.60;;;5.10;;
19127;SDS011;9696;53.686;10.094;2023-01-06T02:18:42;11.23;;;5.07;;
19127;SDS011;9696;53.686;10.094;2023-01-06T02:21:33;21.60;;;4.90;;
19127;SDS011;9696;53.686;10.094;2023-01-06T02:24:22;9.57;;;4.97;;
19127;SDS011;9696;53.686;10.094;2023-01-06T02:27:26;12.00;;;5.00;;
19127;SDS011;9696;53.686;10.094;2023-01-06T02:33:27;11.00;;;4.90;;
19127;SDS011;9696;53.686;10.094;2023-01-06T02:36:03;10.30;;;4.53;;
19127;SDS011;9696;53.686;10.094;2023-01-06T02:38:49;8.17;;;4.20;;
19127;SDS011;9696;53.686;10.094;2023-01-06T02:41:30;7.40;;;4.30;;
19127;SDS011;9696;53.686;10.094;2023-01-06T02:44:15;4.63;;;3.10;;
19127;SDS011;9696;53.686;10.094;2023-01-06T02:46:54;5.90;;;4.10;;
19127;SDS011;9696;53.686;10.094;2023-01-06T02:49:37;10.23;;;4.00;;
19127;SDS011;9696;53.686;10.094;2023-01-06T02:52:16;6.23;;;4.27;;
19127;SDS011;9696;53.686;10.094;2023-01-06T02:54:55;7.33;;;4.13;;
19127;SDS011;9696;53.686;10.094;2023-01-06T02:57:28;7.40;;;4.07;;
19127;SDS011;9696;53.686;10.094;2023-01-06T03:00:07;6.93;;;4.67;;
19127;SDS011;9696;53.686;10.094;2023-01-06T03:02:41;6.80;;;3.77;;
19127;SDS011;9696;53.686;10.094;2023-01-06T03:05:15;8.43;;;4.10;;
19127;SDS011;9696;53.686;10.094;2023-01-06T03:07:45;4.53;;;2.93;;
19127;SDS011;9696;53.686;10.094;2023-01-06T03:10:15;11.43;;;4.87;;
19127;SDS011;9696;53.686;10.094;2023-01-06T03:12:50;6.17;;;4.10;;
19127;SDS011;9696;53.686;10.094;2023-01-06T03:15:23;6.00;;;3.63;;
19127;SDS011;9696;53.686;10.094;2023-01-06T03:17:52;7.37;;;4.13;;
19127;SDS011;9696;53.686;10.094;2023-01-06T03:20:23;8.10;;;3.80;;
19127;SDS011;9696;53.686;10.094;2023-01-06T03:22:52;8.47;;;4.30;;
19127;SDS011;9696;53.686;10.094;2023-01-06T03:25:21;9.13;;;4.03;;
19127;SDS011;9696;53.686;10.094;2023-01-06T03:27:51;4.00;;;3.20;;
19127;SDS011;9696;53.686;10.094;2023-01-06T03:30:21;5.77;;;3.80;;
19127;SDS011;9696;53.686;10.094;2023-01-06T03:32:56;8.27;;;4.07;;
19127;SDS011;9696;53.686;10.094;2023-01-06T03:35:38;5.90;;;3.43;;
19127;SDS011;9696;53.686;10.094;2023-01-06T03:38:16;8.60;;;3.83;;
19127;SDS011;9696;53.686;10.094;2023-01-06T03:40:57;6.10;;;3.70;;
19127;SDS011;9696;53.686;10.094;2023-01-06T03:43:33;7.80;;;4.70;;
19127;SDS011;9696;53.686;10.094;2023-01-06T03:46:15;10.53;;;5.00;;
19127;SDS011;9696;53.686;10.094;2023-01-06T03:48:53;9.80;;;4.57;;
19127;SDS011;9696;53.686;10.094;2023-01-06T03:51:33;10.10;;;4.60;;
19127;SDS011;9696;53.686;10.094;2023-01-06T03:54:12;10.13;;;5.70;;
19127;SDS011;9696;53.686;10.094;2023-01-06T03:56:56;8.80;;;4.83;;
19127;SDS011;9696;53.686;10.094;2023-01-06T03:59:31;12.80;;;6.00;;
19127;SDS011;9696;53.686;10.094;2023-01-06T04:02:04;10.27;;;5.70;;
19127;SDS011;9696;53.686;10.094;2023-01-06T04:04:33;9.70;;;5.17;;
19127;SDS011;9696;53.686;10.094;2023-01-06T04:07:04;14.00;;;6.83;;
19127;SDS011;9696;53.686;10.094;2023-01-06T04:09:38;9.60;;;5.73;;
19127;SDS011;9696;53.686;10.094;2023-01-06T04:12:07;15.23;;;7.70;;
19127;SDS011;9696;53.686;10.094;2023-01-06T04:14:54;14.00;;;6.60;;
19127;SDS011;9696;53.686;10.094;2023-01-06T04:17:23;15.27;;;7.37;;
19127;SDS011;9696;53.686;10.094;2023-01-06T04:19:52;11.43;;;5.53;;
19127;SDS011;9696;53.686;10.094;2023-01-06T04:22:23;14.90;;;6.33;;
19127;SDS011;9696;53.686;10.094;2023-01-06T04:24:52;15.80;;;7.37;;
19127;SDS011;9696;53.686;10.094;2023-01-06T04:27:21;12.97;;;7.27;;
19127;SDS011;9696;53.686;10.094;2023-01-06T04:29:50;11.87;;;6.50;;
19127;SDS011;9696;53.686;10.094;2023-01-06T04:32:19;15.33;;;7.70;;
19127;SDS011;9696;53.686;10.094;2023-01-06T04:34:50;15.57;;;7.97;;
19127;SDS011;9696;53.686;10.094;2023-01-06T04:37:19;21.33;;;8.70;;
19127;SDS011;9696;53.686;10.094;2023-01-06T04:39:49;19.13;;;7.47;;
19127;SDS011;9696;53.686;10.094;2023-01-06T04:42:18;14.37;;;7.47;;
19127;SDS011;9696;53.686;10.094;2023-01-06T04:44:48;12.50;;;7.50;;
19127;SDS011;9696;53.686;10.094;2023-01-06T04:47:17;18.60;;;8.13;;
19127;SDS011;9696;53.686;10.094;2023-01-06T04:49:46;22.83;;;8.63;;
19127;SDS011;9696;53.686;10.094;2023-01-06T04:52:15;19.83;;;8.93;;
19127;SDS011;9696;53.686;10.094;2023-01-06T04:54:44;20.03;;;9.40;;
19127;SDS011;9696;53.686;10.094;2023-01-06T04:57:14;15.83;;;8.33;;
19127;SDS011;9696;53.686;10.094;2023-01-06T04:59:43;13.83;;;7.60;;
19127;SDS011;9696;53.686;10.094;2023-01-06T05:02:12;20.40;;;8.30;;
19127;SDS011;9696;53.686;10.094;2023-01-06T05:04:41;16.63;;;8.70;;
19127;SDS011;9696;53.686;10.094;2023-01-06T05:07:14;17.23;;;7.83;;
19127;SDS011;9696;53.686;10.094;2023-01-06T05:09:43;15.90;;;7.70;;
19127;SDS011;9696;53.686;10.094;2023-01-06T05:12:12;18.80;;;7.87;;
19127;SDS011;9696;53.686;10.094;2023-01-06T05:14:42;17.97;;;7.73;;
19127;SDS011;9696;53.686;10.094;2023-01-06T05:17:11;18.93;;;8.03;;
19127;SDS011;9696;53.686;10.094;2023-01-06T05:19:40;21.93;;;9.13;;
19127;SDS011;9696;53.686;10.094;2023-01-06T05:22:11;19.33;;;7.67;;
19127;SDS011;9696;53.686;10.094;2023-01-06T05:24:40;17.33;;;8.80;;
19127;SDS011;9696;53.686;10.094;2023-01-06T05:27:09;14.20;;;8.03;;
19127;SDS011;9696;53.686;10.094;2023-01-06T05:29:39;17.60;;;7.47;;
19127;SDS011;9696;53.686;10.094;2023-01-06T05:32:08;15.50;;;8.80;;
19127;SDS011;9696;53.686;10.094;2023-01-06T05:34:38;18.77;;;7.93;;
19127;SDS011;9696;53.686;10.094;2023-01-06T05:37:07;19.53;;;8.47;;
19127;SDS011;9696;53.686;10.094;2023-01-06T05:39:36;19.17;;;9.07;;
19127;SDS011;9696;53.686;10.094;2023-01-06T05:42:05;24.53;;;8.97;;
19127;SDS011;9696;53.686;10.094;2023-01-06T05:44:34;15.43;;;7.03;;
19127;SDS011;9696;53.686;10.094;2023-01-06T05:47:05;18.40;;;8.77;;
19127;SDS011;9696;53.686;10.094;2023-01-06T05:49:34;20.77;;;8.77;;
19127;SDS011;9696;53.686;10.094;2023-01-06T05:52:03;21.07;;;9.03;;
19127;SDS011;9696;53.686;10.094;2023-01-06T05:54:32;23.13;;;8.20;;
19127;SDS011;9696;53.686;10.094;2023-01-06T05:57:01;15.60;;;8.00;;
19127;SDS011;9696;53.686;10.094;2023-01-06T05:59:30;26.80;;;8.73;;
19127;SDS011;9696;53.686;10.094;2023-01-06T06:01:59;19.67;;;8.60;;
19127;SDS011;9696;53.686;10.094;2023-01-06T06:04:30;17.23;;;7.67;;
19127;SDS011;9696;53.686;10.094;2023-01-06T06:06:59;15.60;;;8.27;;
19127;SDS011;9696;53.686;10.094;2023-01-06T06:09:28;15.77;;;7.57;;
19127;SDS011;9696;53.686;10.094;2023-01-06T06:11:57;18.13;;;8.03;;
19127;SDS011;9696;53.686;10.094;2023-01-06T06:14:26;12.53;;;7.17;;
19127;SDS011;9696;53.686;10.094;2023-01-06T06:16:55;15.97;;;7.93;;
19127;SDS011;9696;53.686;10.094;2023-01-06T06:19:24;21.07;;;9.87;;
19127;SDS011;9696;53.686;10.094;2023-01-06T06:21:55;18.87;;;8.80;;
19127;SDS011;9696;53.686;10.094;2023-01-06T06:24:24;15.20;;;8.10;;
19127;SDS011;9696;53.686;10.094;2023-01-06T06:26:53;15.13;;;6.67;;
19127;SDS011;9696;53.686;10.094;2023-01-06T06:29:22;17.87;;;8.07;;
19127;SDS011;9696;53.686;10.094;2023-01-06T06:31:51;13.07;;;7.47;;
19127;SDS011;9696;53.686;10.094;2023-01-06T06:34:20;18.83;;;8.67;;
19127;SDS011;9696;53.686;10.094;2023-01-06T06:36:49;19.23;;;8.40;;
19127;SDS011;9696;53.686;10.094;2023-01-06T06:39:21;14.97;;;8.33;;
19127;SDS011;9696;53.686;10.094;2023-01-06T06:41:50;19.67;;;9.20;;
19127;SDS011;9696;53.686;10.094;2023-01-06T06:44:19;23.03;;;8.90;;
19127;SDS011;9696;53.686;10.094;2023-01-06T06:46:48;21.60;;;10.17;;
19127;SDS011;9696;53.686;10.094;2023-01-06T06:49:17;21.37;;;9.47;;
19127;SDS011;9696;53.686;10.094;2023-01-06T06:51:46;19.97;;;9.67;;
19127;SDS011;9696;53.686;10.094;2023-01-06T06:54:15;17.37;;;9.47;;
19127;SDS011;9696;53.686;10.094;2023-01-06T06:56:46;21.47;;;10.93;;
19127;SDS011;9696;53.686;10.094;2023-01-06T06:59:15;22.90;;;9.43;;
19127;SDS011;9696;53.686;10.094;2023-01-06T07:01:44;19.00;;;9.80;;
19127;SDS011;9696;53.686;10.094;2023-01-06T07:04:14;17.50;;;8.40;;
19127;SDS011;9696;53.686;10.094;2023-01-06T07:06:43;18.87;;;9.23;;
19127;SDS011;9696;53.686;10.094;2023-01-06T07:09:12;16.93;;;8.90;;
19127;SDS011;9696;53.686;10.094;2023-01-06T07:11:41;18.50;;;10.07;;
19127;SDS011;9696;53.686;10.094;2023-01-06T07:14:12;19.97;;;9.23;;
19127;SDS011;9696;53.686;10.094;2023-01-06T07:16:42;22.13;;;9.40;;
19127;SDS011;9696;53.686;10.094;2023-01-06T07:19:11;20.27;;;9.77;;
19127;SDS011;9696;53.686;10.094;2023-01-06T07:21:40;15.97;;;9.07;;
19127;SDS011;9696;53.686;10.094;2023-01-06T07:24:09;17.67;;;9.83;;
19127;SDS011;9696;53.686;10.094;2023-01-06T07:26:39;18.13;;;9.33;;
19127;SDS011;9696;53.686;10.094;2023-01-06T07:29:08;17.73;;;8.83;;
19127;SDS011;9696;53.686;10.094;2023-01-06T07:31:38;14.17;;;8.53;;
19127;SDS011;9696;53.686;10.094;2023-01-06T07:34:08;21.67;;;9.70;;
19127;SDS011;9696;53.686;10.094;2023-01-06T07:36:37;16.70;;;9.13;;
19127;SDS011;9696;53.686;10.094;2023-01-06T07:39:07;16.10;;;8.53;;
19127;SDS011;9696;53.686;10.094;2023-01-06T07:41:36;18.87;;;8.57;;
19127;SDS011;9696;53.686;10.094;2023-01-06T07:44:10;16.77;;;8.83;;
19127;SDS011;9696;53.686;10.094;2023-01-06T07:46:40;17.97;;;7.57;;
19127;SDS011;9696;53.686;10.094;2023-01-06T07:49:09;17.63;;;8.70;;
19127;SDS011;9696;53.686;10.094;2023-01-06T07:51:39;17.57;;;9.00;;
19127;SDS011;9696;53.686;10.094;2023-01-06T07:54:08;16.07;;;8.50;;
19127;SDS011;9696;53.686;10.094;2023-01-06T07:56:37;16.47;;;9.27;;
19127;SDS011;9696;53.686;10.094;2023-01-06T07:59:06;12.77;;;7.70;;
19127;SDS011;9696;53.686;10.094;2023-01-06T08:01:35;14.40;;;8.17;;
19127;SDS011;9696;53.686;10.094;2023-01-06T08:04:06;14.60;;;8.10;;
19127;SDS011;9696;53.686;10.094;2023-01-06T08:06:37;16.67;;;8.20;;
19127;SDS011;9696;53.686;10.094;2023-01-06T08:09:07;12.70;;;6.70;;
19127;SDS011;9696;53.686;10.094;2023-01-06T08:11:36;13.97;;;7.23;;
19127;SDS011;9696;53.686;10.094;2023-01-06T08:14:05;10.60;;;6.93;;
19127;SDS011;9696;53.686;10.094;2023-01-06T08:16:34;13.57;;;7.57;;
19127;SDS011;9696;53.686;10.094;2023-01-06T08:19:06;13.07;;;7.90;;
19127;SDS011;9696;53.686;10.094;2023-01-06T08:21:35;12.67;;;7.60;;
19127;SDS011;9696;53.686;10.094;2023-01-06T08:24:05;13.20;;;7.57;;
19127;SDS011;9696;53.686;10.094;2023-01-06T08:26:34;13.77;;;7.73;;
19127;SDS011;9696;53.686;10.094;2023-01-06T08:29:04;13.30;;;7.07;;
19127;SDS011;9696;53.686;10.094;2023-01-06T08:31:33;9.67;;;6.80;;
19127;SDS011;9696;53.686;10.094;2023-01-06T08:34:02;12.30;;;6.83;;
19127;SDS011;9696;53.686;10.094;2023-01-06T08:36:33;15.07;;;7.70;;
19127;SDS011;9696;53.686;10.094;2023-01-06T08:39:02;10.57;;;6.27;;
19127;SDS011;9696;53.686;10.094;2023-01-06T08:41:32;12.47;;;6.47;;
19127;SDS011;9696;53.686;10.094;2023-01-06T08:44:01;9.80;;;5.93;;
19127;SDS011;9696;53.686;10.094;2023-01-06T08:46:30;9.43;;;5.60;;
19127;SDS011;9696;53.686;10.094;2023-01-06T08:49:00;8.60;;;5.83;;
19127;SDS011;9696;53.686;10.094;2023-01-06T08:51:29;8.07;;;5.27;;
19127;SDS011;9696;53.686;10.094;2023-01-06T08:53:59;7.30;;;5.00;;
19127;SDS011;9696;53.686;10.094;2023-01-06T08:56:29;7.40;;;5.30;;
19127;SDS011;9696;53.686;10.094;2023-01-06T08:59:00;7.73;;;5.20;;
19127;SDS011;9696;53.686;10.094;2023-01-06T09:01:31;6.83;;;4.90;;
19127;SDS011;9696;53.686;10.094;2023-01-06T09:04:03;7.27;;;4.47;;
19127;SDS011;9696;53.686;10.094;2023-01-06T09:06:34;6.70;;;4.50;;
19127;SDS011;9696;53.686;10.094;2023-01-06T09:09:06;8.30;;;4.70;;
19127;SDS011;9696;53.686;10.094;2023-01-06T09:11:35;9.13;;;4.23;;
19127;SDS011;9696;53.686;10.094;2023-01-06T09:14:07;6.87;;;4.50;;
19127;SDS011;9696;53.686;10.094;2023-01-06T09:16:36;8.90;;;4.50;;
19127;SDS011;9696;53.686;10.094;2023-01-06T09:19:06;7.70;;;4.77;;
19127;SDS011;9696;53.686;10.094;2023-01-06T09:21:36;8.63;;;5.40;;
19127;SDS011;9696;53.686;10.094;2023-01-06T09:24:10;8.40;;;4.33;;
19127;SDS011;9696;53.686;10.094;2023-01-06T09:26:40;14.37;;;5.90;;
19127;SDS011;9696;53.686;10.094;2023-01-06T09:29:09;14.37;;;5.60;;
19127;SDS011;9696;53.686;10.094;2023-01-06T09:31:39;7.77;;;4.53;;
19127;SDS011;9696;53.686;10.094;2023-01-06T09:34:08;5.13;;;3.77;;
19127;SDS011;9696;53.686;10.094;2023-01-06T09:36:37;6.53;;;4.57;;
19127;SDS011;9696;53.686;10.094;2023-01-06T09:39:06;6.27;;;4.03;;
19127;SDS011;9696;53.686;10.094;2023-01-06T09:41:50;6.77;;;3.43;;
19127;SDS011;9696;53.686;10.094;2023-01-06T09:44:40;7.70;;;4.07;;
19127;SDS011;9696;53.686;10.094;2023-01-06T09:47:14;6.83;;;4.50;;
19127;SDS011;9696;53.686;10.094;2023-01-06T09:49:48;4.97;;;3.60;;
19127;SDS011;9696;53.686;10.094;2023-01-06T09:52:24;9.20;;;4.20;;
19127;SDS011;9696;53.686;10.094;2023-01-06T09:54:56;9.13;;;3.87;;
19127;SDS011;9696;53.686;10.094;2023-01-06T09:57:33;7.07;;;4.10;;
19127;SDS011;9696;53.686;10.094;2023-01-06T10:00:06;5.07;;;3.83;;
19127;SDS011;9696;53.686;10.094;2023-01-06T10:02:49;9.73;;;4.37;;
19127;SDS011;9696;53.686;10.094;2023-01-06T10:05:19;7.37;;;3.80;;
19127;SDS011;9696;53.686;10.094;2023-01-06T10:07:59;12.57;;;3.80;;
19127;SDS011;9696;53.686;10.094;2023-01-06T10:10:37;4.33;;;3.50;;
19127;SDS011;9696;53.686;10.094;2023-01-06T10:13:20;5.67;;;3.73;;
19127;SDS011;9696;53.686;10.094;2023-01-06T10:16:03;5.33;;;3.53;;
19127;SDS011;9696;53.686;10.094;2023-01-06T10:18:41;4.57;;;3.27;;
19127;SDS011;9696;53.686;10.094;2023-01-06T10:21:22;4.93;;;2.77;;
19127;SDS011;9696;53.686;10.094;2023-01-06T10:24:02;3.70;;;2.60;;
19127;SDS011;9696;53.686;10.094;2023-01-06T10:26:52;3.67;;;2.80;;
19127;SDS011;9696;53.686;10.094;2023-01-06T10:29:28;12.13;;;3.83;;
19127;SDS011;9696;53.686;10.094;2023-01-06T10:32:02;5.40;;;2.60;;
19127;SDS011;9696;53.686;10.094;2023-01-06T10:34:33;6.10;;;3.10;;
19127;SDS011;9696;53.686;10.094;2023-01-06T10:37:04;4.57;;;2.97;;
19127;SDS011;9696;53.686;10.094;2023-01-06T10:39:47;8.67;;;3.70;;
19127;SDS011;9696;53.686;10.094;2023-01-06T10:42:22;8.67;;;3.63;;
19127;SDS011;9696;53.686;10.094;2023-01-06T10:45:33;5.27;;;3.17;;
19127;SDS011;9696;53.686;10.094;2023-01-06T10:48:05;5.03;;;3.63;;
19127;SDS011;9696;53.686;10.094;2023-01-06T10:50:38;5.83;;;3.30;;
19127;SDS011;9696;53.686;10.094;2023-01-06T10:53:08;5.80;;;4.23;;
19127;SDS011;9696;53.686;10.094;2023-01-06T10:55:40;4.60;;;3.27;;
19127;SDS011;9696;53.686;10.094;2023-01-06T10:58:18;3.40;;;1.93;;
19127;SDS011;9696;53.686;10.094;2023-01-06T11:01:00;2.83;;;1.80;;
19127;SDS011;9696;53.686;10.094;2023-01-06T11:03:35;1.40;;;1.10;;
19127;SDS011;9696;53.686;10.094;2023-01-06T11:06:09;0.80;;;0.80;;
19127;SDS011;9696;53.686;10.094;2023-01-06T11:08:44;1.87;;;1.50;;
19127;SDS011;9696;53.686;10.094;2023-01-06T11:11:14;2.73;;;0.93;;
19127;SDS011;9696;53.686;10.094;2023-01-06T11:13:55;4.00;;;0.60;;
19127;SDS011;9696;53.686;10.094;2023-01-06T11:16:31;0.97;;;0.80;;
19127;SDS011;9696;53.686;10.094;2023-01-06T11:19:04;1.20;;;0.57;;
19127;SDS011;9696;53.686;10.094;2023-01-06T11:21:36;2.07;;;0.90;;
19127;SDS011;9696;53.686;10.094;2023-01-06T11:24:08;1.10;;;0.53;;
19127;SDS011;9696;53.686;10.094;2023-01-06T11:26:45;0.90;;;0.33;;
19127;SDS011;9696;53.686;10.094;2023-01-06T11:29:23;8.30;;;0.77;;
19127;SDS011;9696;53.686;10.094;2023-01-06T11:32:00;1.90;;;0.50;;
19127;SDS011;9696;53.686;10.094;2023-01-06T11:34:32;1.03;;;0.90;;
19127;SDS011;9696;53.686;10.094;2023-01-06T11:37:03;0.80;;;0.40;;
19127;SDS011;9696;53.686;10.094;2023-01-06T11:39:33;1.07;;;0.60;;
19127;SDS011;9696;53.686;10.094;2023-01-06T11:42:09;1.93;;;0.53;;
19127;SDS011;9696;53.686;10.094;2023-01-06T11:44:40;1.23;;;0.50;;
19127;SDS011;9696;53.686;10.094;2023-01-06T11:47:13;1.00;;;0.40;;
19127;SDS011;9696;53.686;10.094;2023-01-06T11:49:46;0.67;;;0.43;;
19127;SDS011;9696;53.686;10.094;2023-01-06T11:52:19;2.57;;;2.13;;
19127;SDS011;9696;53.686;10.094;2023-01-06T11:54:57;0.63;;;0.50;;
19127;SDS011;9696;53.686;10.094;2023-01-06T11:57:34;0.77;;;0.70;;
19127;SDS011;9696;53.686;10.094;2023-01-06T12:03:04;5.27;;;0.97;;
19127;SDS011;9696;53.686;10.094;2023-01-06T12:05:43;2.33;;;0.90;;
19127;SDS011;9696;53.686;10.094;2023-01-06T12:08:19;1.00;;;0.90;;
19127;SDS011;9696;53.686;10.094;2023-01-06T12:10:52;5.00;;;0.80;;
19127;SDS011;9696;53.686;10.094;2023-01-06T12:13:26;3.30;;;0.57;;
19127;SDS011;9696;53.686;10.094;2023-01-06T12:15:57;5.07;;;0.87;;
19127;SDS011;9696;53.686;10.094;2023-01-06T12:18:33;4.67;;;0.87;;
19127;SDS011;9696;53.686;10.094;2023-01-06T12:21:04;4.07;;;1.47;;
19127;SDS011;9696;53.686;10.094;2023-01-06T12:23:39;4.13;;;1.20;;
19127;SDS011;9696;53.686;10.094;2023-01-06T12:26:12;3.40;;;0.83;;
19127;SDS011;9696;53.686;10.094;2023-01-06T12:28:46;5.03;;;1.73;;
19127;SDS011;9696;53.686;10.094;2023-01-06T12:31:19;2.90;;;0.80;;
19127;SDS011;9696;53.686;10.094;2023-01-06T12:33:56;4.33;;;0.93;;
19127;SDS011;9696;53.686;10.094;2023-01-06T12:36:32;3.57;;;0.97;;
19127;SDS011;9696;53.686;10.094;2023-01-06T12:39:10;15.47;;;1.90;;
19127;SDS011;9696;53.686;10.094;2023-01-06T12:41:40;4.70;;;0.70;;
19127;SDS011;9696;53.686;10.094;2023-01-06T12:44:15;7.23;;;0.77;;
19127;SDS011;9696;53.686;10.094;2023-01-06T12:46:58;8.67;;;1.00;;
19127;SDS011;9696;53.686;10.094;2023-01-06T12:49:36;3.83;;;1.10;;
19127;SDS011;9696;53.686;10.094;2023-01-06T12:52:12;5.23;;;1.87;;
19127;SDS011;9696;53.686;10.094;2023-01-06T12:54:47;6.73;;;1.00;;
19127;SDS011;9696;53.686;10.094;2023-01-06T12:57:22;9.53;;;1.10;;
19127;SDS011;9696;53.686;10.094;2023-01-06T13:03:24;4.87;;;0.93;;
19127;SDS011;9696;53.686;10.094;2023-01-06T13:06:18;7.27;;;1.13;;
19127;SDS011;9696;53.686;10.094;2023-01-06T13:09:07;9.00;;;1.17;;
19127;SDS011;9696;53.686;10.094;2023-01-06T13:11:53;8.77;;;1.07;;
19127;SDS011;9696;53.686;10.094;2023-01-06T13:14:35;6.67;;;1.10;;
19127;SDS011;9696;53.686;10.094;2023-01-06T13:17:11;7.07;;;1.10;;
19127;SDS011;9696;53.686;10.094;2023-01-06T13:19:47;22.10;;;1.67;;
19127;SDS011;9696;53.686;10.094;2023-01-06T13:25:20;8.47;;;1.03;;
19127;SDS011;9696;53.686;10.094;2023-01-06T13:28:06;3.33;;;1.10;;
19127;SDS011;9696;53.686;10.094;2023-01-06T13:30:55;6.57;;;0.90;;
19127;SDS011;9696;53.686;10.094;2023-01-06T13:33:50;5.80;;;0.73;;
19127;SDS011;9696;53.686;10.094;2023-01-06T13:39:42;3.23;;;1.40;;
19127;SDS011;9696;53.686;10.094;2023-01-06T13:42:14;6.70;;;2.27;;
19127;SDS011;9696;53.686;10.094;2023-01-06T13:44:49;9.40;;;1.23;;
19127;SDS011;9696;53.686;10.094;2023-01-06T13:47:18;7.83;;;1.27;;
19127;SDS011;9696;53.686;10.094;2023-01-06T13:49:50;4.53;;;0.97;;
19127;SDS011;9696;53.686;10.094;2023-01-06T13:52:21;3.73;;;0.67;;
19127;SDS011;9696;53.686;10.094;2023-01-06T13:54:57;2.57;;;0.70;;
19127;SDS011;9696;53.686;10.094;2023-01-06T13:57:31;3.57;;;0.60;;
19127;SDS011;9696;53.686;10.094;2023-01-06T14:03:01;7.00;;;0.70;;
19127;SDS011;9696;53.686;10.094;2023-01-06T14:05:49;9.27;;;0.77;;
19127;SDS011;9696;53.686;10.094;2023-01-06T14:08:20;7.57;;;1.00;;
19127;SDS011;9696;53.686;10.094;2023-01-06T14:10:55;4.43;;;0.83;;
19127;SDS011;9696;53.686;10.094;2023-01-06T14:13:31;3.57;;;0.73;;
19127;SDS011;9696;53.686;10.094;2023-01-06T14:16:04;6.07;;;1.10;;
19127;SDS011;9696;53.686;10.094;2023-01-06T14:18:38;12.93;;;1.37;;
19127;SDS011;9696;53.686;10.094;2023-01-06T14:21:16;6.70;;;1.00;;
19127;SDS011;9696;53.686;10.094;2023-01-06T14:23:50;5.83;;;0.77;;
19127;SDS011;9696;53.686;10.094;2023-01-06T14:29:44;3.53;;;1.10;;
19127;SDS011;9696;53.686;10.094;2023-01-06T14:35:24;2.53;;;0.77;;
19127;SDS011;9696;53.686;10.094;2023-01-06T14:37:57;1.60;;;0.60;;
19127;SDS011;9696;53.686;10.094;2023-01-06T14:40:30;4.10;;;0.90;;
19127;SDS011;9696;53.686;10.094;2023-01-06T14:43:06;5.73;;;0.80;;
19127;SDS011;9696;53.686;10.094;2023-01-06T14:45:56;3.43;;;0.90;;
19127;SDS011;9696;53.686;10.094;2023-01-06T14:48:36;5.03;;;1.23;;
19127;SDS011;9696;53.686;10.094;2023-01-06T14:51:11;1.70;;;0.70;;
19127;SDS011;9696;53.686;10.094;2023-01-06T14:53:45;9.33;;;1.30;;
19127;SDS011;9696;53.686;10.094;2023-01-06T14:56:19;6.73;;;1.07;;
19127;SDS011;9696;53.686;10.094;2023-01-06T14:59:00;3.43;;;1.00;;
19127;SDS011;9696;53.686;10.094;2023-01-06T15:01:36;5.00;;;1.20;;
19127;SDS011;9696;53.686;10.094;2023-01-06T15:04:18;2.80;;;0.90;;
19127;SDS011;9696;53.686;10.094;2023-01-06T15:06:57;4.77;;;0.73;;
19127;SDS011;9696;53.686;10.094;2023-01-06T15:09:29;16.10;;;1.30;;
19127;SDS011;9696;53.686;10.094;2023-01-06T15:11:58;6.10;;;1.20;;
19127;SDS011;9696;53.686;10.094;2023-01-06T15:14:30;6.50;;;1.40;;
19127;SDS011;9696;53.686;10.094;2023-01-06T15:17:01;4.03;;;0.83;;
19127;SDS011;9696;53.686;10.094;2023-01-06T15:19:33;2.57;;;0.93;;
19127;SDS011;9696;53.686;10.094;2023-01-06T15:22:05;8.57;;;1.67;;
19127;SDS011;9696;53.686;10.094;2023-01-06T15:24:36;7.70;;;1.10;;
19127;SDS011;9696;53.686;10.094;2023-01-06T15:27:10;4.90;;;1.10;;
19127;SDS011;9696;53.686;10.094;2023-01-06T15:29:49;8.90;;;1.43;;
19127;SDS011;9696;53.686;10.094;2023-01-06T15:32:19;1.73;;;0.80;;
19127;SDS011;9696;53.686;10.094;2023-01-06T15:34:50;3.13;;;0.80;;
19127;SDS011;9696;53.686;10.094;2023-01-06T15:37:22;9.03;;;1.23;;
19127;SDS011;9696;53.686;10.094;2023-01-06T15:39:53;5.60;;;1.23;;
19127;SDS011;9696;53.686;10.094;2023-01-06T15:42:23;5.40;;;0.90;;
19127;SDS011;9696;53.686;10.094;2023-01-06T15:44:55;5.80;;;1.00;;